LFSTLFJL

Guest
Details From LFST - Entzheim
To LFJL - Metz-Nancy-Lorraine
Flight Number -
Tags generated
Created
Modified
Stats Distance 61 nm / 113 km
Max Altitude 7,600 ft / 2,316 m
Waypoints 3
Social Downloads 0
Likes 0
Share VATSIM

Download

Looking for another format? Having issues loading an existing format? Contact us
Advertisement - Login to hide

Notes

Basic altitude profile: - Ascent Rate: 2500ft/min - Ascent Speed: 250kts - Cruise Altitude: 35000ft - Cruise Speed: 420kts - Descent Rate: 1500ft/min - Descent Speed: 250kts Options: - Use NATs: yes - Use PACOTS: yes - Use low airways: yes - Use high airways: yes

Route

LFST PHALO LFJL

ID Type Via Altitude (ft/m) Position (lat/lon) Dist (leg/tot) Name
O LFST APT - 0 / 0 48.53833 / 7.62826 - / 0 nm Entzheim
PHALO FIX - 7,600 / 2,316 48.77778 / 7.09528 25 / 25 nm
O LFJL APT - 0 / 0 48.98065 / 6.24947 35 / 61 nm Metz-Nancy-Lorraine

Altitude Profile

Advertisement - Login to hide

LFST

Details ICAO LFST (SXB)
Name Entzheim
Region France
Timezone Europe/Paris (UTC+1.0)
Stats Elevation 504 ft / 154 m (AMSL)
Location 48.538300° 7.628260°
Runways 1
Magnetic Variation 2.219° E

METAR

LFST 130430Z AUTO VRB01KT 9999 OVC058 12/10 Q1023 TEMPO 4000 -RA

Decode

TAF

TAF LFST 122300Z 1300/1324 18005KT 9999 SCT030 BKN050 TEMPO 1300/1309 4000 -RA PROB40 TEMPO 1310/1316 4000 -SHRA FEW030TCU

Decode

Departure Runways

ID Width Length Bearing (true/mag) Surface Threshold Overrun Markings Lighting
05 148 ft / 45 m 7,899 ft / 2,408 m 48.60° / 46.38° ASPHALT 0 ft / 0 m 860 ft / 262 m UK-PREC-APP CENTERLINE EDGE THRESHOLD REIL-OMNI
23 148 ft / 45 m 7,899 ft / 2,408 m 228.62° / 226.40° ASPHALT 0 ft / 0 m 902 ft / 275 m UK-PREC-APP CENTERLINE EDGE THRESHOLD CALVERT-ILS TDZ REIL-OMNI

LFJL

Details ICAO LFJL (ETZ)
Name Metz-Nancy-Lorraine
Region France
Timezone Europe/Paris (UTC+1.0)
Stats Elevation 870 ft / 265 m (AMSL)
Location 48.980600° 6.249470°
Runways 1
Magnetic Variation 1.837° E

METAR

LFJL 130430Z AUTO 16010KT 9999 -RA NSC 11/10 Q1022 TEMPO 2500 RA BKN008 SCT020TCU

Decode

TAF

TAF LFJL 122300Z 1300/1324 20006KT 5000 -RA BKN015 BKN040 TEMPO 1300/1308 2500 RA BKN008 SCT020TCU BECMG 1308/1311 26010KT 9999 NSW SCT020 BKN040 BECMG 1318/1321 17005KT

Decode

Destination Runways

ID Width Length Bearing (true/mag) Surface Threshold Overrun Markings Lighting
04 148 ft / 45 m 10,016 ft / 3,053 m 39.13° / 37.29° ASPHALT 656 ft / 200 m 0 ft / 0 m PREC-APP CENTERLINE EDGE THRESHOLD REIL-OMNI
22 148 ft / 45 m 10,016 ft / 3,053 m 219.15° / 217.31° ASPHALT 0 ft / 0 m 0 ft / 0 m PREC-APP CENTERLINE EDGE THRESHOLD ALSF-II TDZ REIL-OMNI

Approach Navaids

Runway Type Ident Frequency Range Bearing (true/mag) Slope Elevation
22 LOC-ILS MLY 111.75 MHz 18 nm / 33 km 219.20° / 217.37 ° - 870 ft / 265 m (AMSL)
22 GS MLY 111.75 MHz 10 nm / 19 km 219.28° / 217.45 ° 3.00° 870 ft / 265 m (AMSL)
22 DME MLY 111.75 MHz 18 nm / 33 km - - 919 ft / 280 m (AMSL)

Popular Alternatives